Grand Marais, Minnesota
Current Conditions -  °F | °C
As of 3:33 PM on Monday 24 Nov 2014 (Local Time) from KCKC Reporting Station
Light Snow Light Snow  
Wind Chill: -3°   Ceiling: 1000
Heat Index: 14°   Visibility: 1.7mi
Dew Point:   Wind: 20mph
Humidity: 79%   Direction: 330°NNW
Pressure: 29.37"   Gusts: 30mph
Location:  47.75°N, 90.33°W
Report Text: KCKC 242133Z AUTO 33017G26KT 299V359 1 3/4SM -SN OVC010 M10/M13 A2937 RMK AO2
Loading
Personal Weather Stations






























Interactive Weather Map New forecast layout! Learn more

10-Day Weather Forecast

Advertisements
Track Severe Weather on mobile